BTK6415 WADD-WARR
Flight info
| Callsign | BTK6415 |
|---|---|
| Flight time | 0h 46m |
| Altitude | 26000 |
| Route | OKANG |
| Aircraft | A320/M-SDE3FGHIRWY/LB1 |
Departure
| Time | 2026-05-06 13:34 |
|---|---|
| Airport | Denpasar I Gusti Ngurah Rai International Airport (WADD) |
Arrival
| Time | 2026-05-06 14:20 |
|---|---|
| Airport | Juanda International Airport (WARR) |
| Time | Latitude | Longitude | Altitude | Speed | Heading |
|---|---|---|---|---|---|
| 2026-05-06 12:52 | -8.74518 | 115.17479 | 32 ft | 0 kts | 358° |
| 2026-05-06 13:20 | -8.74520 | 115.17479 | 33 ft | 2 kts | 358° |
| 2026-05-06 13:21 | -8.74542 | 115.17480 | 30 ft | 3 kts | 358° |
| 2026-05-06 13:21 | -8.74564 | 115.17481 | 31 ft | 3 kts | 358° |
| 2026-05-06 13:21 | -8.74586 | 115.17482 | 29 ft | 3 kts | 358° |
| 2026-05-06 13:21 | -8.74605 | 115.17483 | 31 ft | 3 kts | 356° |
| 2026-05-06 13:22 | -8.74626 | 115.17487 | 32 ft | 3 kts | 329° |
| 2026-05-06 13:22 | -8.74640 | 115.17500 | 30 ft | 3 kts | 292° |
| 2026-05-06 13:22 | -8.74645 | 115.17521 | 32 ft | 3 kts | 270° |
| 2026-05-06 13:22 | -8.74645 | 115.17535 | 32 ft | 0 kts | 268° |
| 2026-05-06 13:26 | -8.74646 | 115.17524 | 32 ft | 5 kts | 267° |
| 2026-05-06 13:26 | -8.74648 | 115.17480 | 32 ft | 7 kts | 268° |
| 2026-05-06 13:26 | -8.74650 | 115.17411 | 32 ft | 11 kts | 268° |
| 2026-05-06 13:26 | -8.74653 | 115.17334 | 32 ft | 10 kts | 268° |
| 2026-05-06 13:27 | -8.74656 | 115.17265 | 32 ft | 10 kts | 268° |
| 2026-05-06 13:27 | -8.74658 | 115.17202 | 32 ft | 9 kts | 268° |
| 2026-05-06 13:27 | -8.74661 | 115.17143 | 32 ft | 10 kts | 268° |
| 2026-05-06 13:27 | -8.74665 | 115.17061 | 32 ft | 12 kts | 267° |
| 2026-05-06 13:28 | -8.74669 | 115.16971 | 32 ft | 13 kts | 267° |
| 2026-05-06 13:28 | -8.74673 | 115.16882 | 32 ft | 12 kts | 268° |
| 2026-05-06 13:28 | -8.74677 | 115.16793 | 32 ft | 13 kts | 267° |
| 2026-05-06 13:28 | -8.74681 | 115.16708 | 32 ft | 11 kts | 268° |
| 2026-05-06 13:29 | -8.74684 | 115.16623 | 32 ft | 13 kts | 267° |
| 2026-05-06 13:29 | -8.74690 | 115.16527 | 32 ft | 13 kts | 266° |
| 2026-05-06 13:29 | -8.74691 | 115.16433 | 32 ft | 15 kts | 269° |
| 2026-05-06 13:29 | -8.74695 | 115.16322 | 33 ft | 15 kts | 268° |
| 2026-05-06 13:30 | -8.74700 | 115.16218 | 33 ft | 14 kts | 267° |
| 2026-05-06 13:30 | -8.74704 | 115.16126 | 33 ft | 13 kts | 268° |
| 2026-05-06 13:30 | -8.74708 | 115.16029 | 33 ft | 14 kts | 268° |
| 2026-05-06 13:30 | -8.74712 | 115.15929 | 33 ft | 14 kts | 267° |
| 2026-05-06 13:31 | -8.74717 | 115.15832 | 33 ft | 13 kts | 267° |
| 2026-05-06 13:31 | -8.74721 | 115.15738 | 32 ft | 14 kts | 267° |
| 2026-05-06 13:31 | -8.74725 | 115.15638 | 32 ft | 14 kts | 268° |
| 2026-05-06 13:31 | -8.74728 | 115.15545 | 32 ft | 13 kts | 268° |
| 2026-05-06 13:32 | -8.74730 | 115.15461 | 32 ft | 12 kts | 266° |
| 2026-05-06 13:32 | -8.74764 | 115.15396 | 32 ft | 10 kts | 207° |
| 2026-05-06 13:32 | -8.74841 | 115.15392 | 28 ft | 11 kts | 178° |
| 2026-05-06 13:32 | -8.74896 | 115.15403 | 29 ft | 6 kts | 129° |
| 2026-05-06 13:33 | -8.74896 | 115.15449 | 29 ft | 9 kts | 87° |
| 2026-05-06 13:33 | -8.74886 | 115.15694 | 28 ft | 70 kts | 88° |
| 2026-05-06 13:33 | -8.74856 | 115.16406 | 29 ft | 130 kts | 88° |
| 2026-05-06 13:33 | -8.74815 | 115.17466 | 215 ft | 161 kts | 90° |
| 2026-05-06 13:34 | -8.74749 | 115.18548 | 1106 ft | 148 kts | 89° |
| 2026-05-06 13:34 | -8.74699 | 115.19546 | 1868 ft | 146 kts | 89° |
| 2026-05-06 13:34 | -8.74638 | 115.20623 | 2298 ft | 159 kts | 88° |
| 2026-05-06 13:34 | -8.74553 | 115.21764 | 2847 ft | 165 kts | 88° |
| 2026-05-06 13:35 | -8.74478 | 115.22937 | 3478 ft | 169 kts | 88° |
| 2026-05-06 13:35 | -8.74434 | 115.24134 | 4057 ft | 175 kts | 90° |
| 2026-05-06 13:35 | -8.74405 | 115.25430 | 4404 ft | 192 kts | 90° |
| 2026-05-06 13:35 | -8.74386 | 115.26838 | 4774 ft | 211 kts | 90° |
| 2026-05-06 13:36 | -8.74359 | 115.28422 | 5077 ft | 238 kts | 89° |
| 2026-05-06 13:36 | -8.74301 | 115.30143 | 5674 ft | 252 kts | 89° |
| 2026-05-06 13:36 | -8.74249 | 115.31947 | 6407 ft | 260 kts | 88° |
| 2026-05-06 13:36 | -8.74147 | 115.33794 | 7126 ft | 269 kts | 87° |
| 2026-05-06 13:37 | -8.74054 | 115.35709 | 7798 ft | 278 kts | 87° |
| 2026-05-06 13:37 | -8.73949 | 115.37671 | 8642 ft | 279 kts | 87° |
| 2026-05-06 13:37 | -8.73829 | 115.39636 | 9494 ft | 281 kts | 87° |
| 2026-05-06 13:37 | -8.73754 | 115.41612 | 10243 ft | 284 kts | 88° |
| 2026-05-06 13:38 | -8.73724 | 115.42974 | 10656 ft | 290 kts | 89° |
| 2026-05-06 13:38 | -8.73686 | 115.45083 | 10960 ft | 310 kts | 89° |
| 2026-05-06 13:38 | -8.73595 | 115.47308 | 11428 ft | 322 kts | 84° |
| 2026-05-06 13:38 | -8.73099 | 115.49530 | 12043 ft | 330 kts | 71° |
| 2026-05-06 13:39 | -8.72178 | 115.51696 | 12484 ft | 343 kts | 64° |
| 2026-05-06 13:39 | -8.70915 | 115.53794 | 12862 ft | 357 kts | 53° |
| 2026-05-06 13:39 | -8.69192 | 115.55663 | 13208 ft | 371 kts | 44° |
| 2026-05-06 13:39 | -8.67251 | 115.57466 | 13383 ft | 388 kts | 42° |
| 2026-05-06 13:40 | -8.64504 | 115.59844 | 13974 ft | 397 kts | 41° |
| 2026-05-06 13:40 | -8.63096 | 115.61075 | 14391 ft | 396 kts | 41° |
| 2026-05-06 13:40 | -8.61027 | 115.62911 | 15042 ft | 396 kts | 42° |
| 2026-05-06 13:40 | -8.58957 | 115.64776 | 15560 ft | 400 kts | 42° |
| 2026-05-06 13:41 | -8.56884 | 115.66667 | 16075 ft | 404 kts | 42° |
| 2026-05-06 13:41 | -8.54791 | 115.68520 | 16534 ft | 408 kts | 36° |
| 2026-05-06 13:41 | -8.52260 | 115.69824 | 16896 ft | 413 kts | 14° |
| 2026-05-06 13:41 | -8.49369 | 115.70034 | 17333 ft | 414 kts | 350° |
| 2026-05-06 13:42 | -8.46662 | 115.69103 | 17766 ft | 413 kts | 327° |
| 2026-05-06 13:42 | -8.44441 | 115.67342 | 18204 ft | 412 kts | 314° |
| 2026-05-06 13:42 | -8.42528 | 115.65188 | 18626 ft | 413 kts | 305° |
| 2026-05-06 13:42 | -8.41075 | 115.62694 | 19051 ft | 413 kts | 290° |
| 2026-05-06 13:43 | -8.40470 | 115.59876 | 19435 ft | 413 kts | 270° |
| 2026-05-06 13:43 | -8.40940 | 115.57033 | 19821 ft | 413 kts | 249° |
| 2026-05-06 13:43 | -8.42305 | 115.54481 | 20197 ft | 415 kts | 238° |
| 2026-05-06 13:43 | -8.43692 | 115.51916 | 20577 ft | 418 kts | 245° |
| 2026-05-06 13:44 | -8.44690 | 115.49153 | 20957 ft | 421 kts | 255° |
| 2026-05-06 13:44 | -8.45223 | 115.46242 | 21342 ft | 423 kts | 264° |
| 2026-05-06 13:44 | -8.45344 | 115.43260 | 21706 ft | 426 kts | 268° |
| 2026-05-06 13:44 | -8.45421 | 115.40265 | 22056 ft | 429 kts | 268° |
| 2026-05-06 13:45 | -8.45508 | 115.37244 | 22438 ft | 431 kts | 268° |
| 2026-05-06 13:45 | -8.45701 | 115.31162 | 23159 ft | 435 kts | 268° |
| 2026-05-06 13:45 | -8.45800 | 115.28101 | 23506 ft | 437 kts | 268° |
| 2026-05-06 13:46 | -8.45901 | 115.25024 | 23787 ft | 439 kts | 268° |
| 2026-05-06 13:46 | -8.46004 | 115.21932 | 24081 ft | 441 kts | 268° |
| 2026-05-06 13:46 | -8.46104 | 115.18838 | 24375 ft | 442 kts | 268° |
| 2026-05-06 13:46 | -8.46205 | 115.15728 | 24641 ft | 444 kts | 268° |
| 2026-05-06 13:47 | -8.46307 | 115.12603 | 24917 ft | 446 kts | 268° |
| 2026-05-06 13:47 | -8.46406 | 115.09469 | 25218 ft | 447 kts | 268° |
| 2026-05-06 13:47 | -8.46399 | 115.06330 | 25501 ft | 449 kts | 274° |
| 2026-05-06 13:47 | -8.45848 | 115.03224 | 25766 ft | 451 kts | 285° |
| 2026-05-06 13:48 | -8.44721 | 115.00259 | 25899 ft | 455 kts | 295° |
| 2026-05-06 13:48 | -8.43070 | 114.97502 | 25937 ft | 463 kts | 306° |
| 2026-05-06 13:48 | -8.40870 | 114.95118 | 25937 ft | 467 kts | 319° |
| 2026-05-06 13:48 | -8.38181 | 114.93260 | 25936 ft | 470 kts | 327° |
| 2026-05-06 13:49 | -8.35376 | 114.91566 | 25936 ft | 470 kts | 327° |
| 2026-05-06 13:49 | -8.32556 | 114.89882 | 25936 ft | 471 kts | 328° |
| 2026-05-06 13:49 | -8.29729 | 114.88216 | 25937 ft | 471 kts | 328° |
| 2026-05-06 13:49 | -8.26901 | 114.86558 | 25937 ft | 471 kts | 328° |
| 2026-05-06 13:50 | -8.24069 | 114.84893 | 25925 ft | 471 kts | 328° |
| 2026-05-06 13:50 | -8.21238 | 114.83220 | 25929 ft | 472 kts | 328° |
| 2026-05-06 13:50 | -8.18403 | 114.81538 | 25930 ft | 472 kts | 328° |
| 2026-05-06 13:50 | -8.15572 | 114.79859 | 25929 ft | 472 kts | 328° |
| 2026-05-06 13:51 | -8.12740 | 114.78182 | 25918 ft | 472 kts | 328° |
| 2026-05-06 13:51 | -8.09904 | 114.76502 | 25916 ft | 472 kts | 328° |
| 2026-05-06 13:51 | -8.07077 | 114.74824 | 25914 ft | 472 kts | 328° |
| 2026-05-06 13:51 | -8.04250 | 114.73146 | 25912 ft | 472 kts | 328° |
| 2026-05-06 13:52 | -8.01419 | 114.71466 | 25911 ft | 472 kts | 328° |
| 2026-05-06 13:52 | -7.98624 | 114.69812 | 25895 ft | 471 kts | 328° |
| 2026-05-06 13:52 | -7.95815 | 114.68115 | 25892 ft | 471 kts | 324° |
| 2026-05-06 13:52 | -7.93263 | 114.66062 | 25892 ft | 469 kts | 314° |
| 2026-05-06 13:53 | -7.91120 | 114.63598 | 25893 ft | 467 kts | 304° |
| 2026-05-06 13:53 | -7.89450 | 114.60800 | 25889 ft | 465 kts | 294° |
| 2026-05-06 13:53 | -7.88293 | 114.57759 | 25888 ft | 464 kts | 284° |
| 2026-05-06 13:53 | -7.87474 | 114.54620 | 25889 ft | 464 kts | 283° |
| 2026-05-06 13:54 | -7.86652 | 114.51468 | 25886 ft | 464 kts | 284° |
| 2026-05-06 13:54 | -7.85823 | 114.48326 | 25887 ft | 465 kts | 284° |
| 2026-05-06 13:54 | -7.84990 | 114.45176 | 25889 ft | 465 kts | 284° |
| 2026-05-06 13:54 | -7.84156 | 114.42029 | 25889 ft | 465 kts | 284° |
| 2026-05-06 13:55 | -7.83322 | 114.38879 | 25888 ft | 465 kts | 284° |
| 2026-05-06 13:55 | -7.82489 | 114.35728 | 25896 ft | 465 kts | 284° |
| 2026-05-06 13:55 | -7.81658 | 114.32576 | 25897 ft | 465 kts | 284° |
| 2026-05-06 13:55 | -7.80826 | 114.29428 | 25897 ft | 465 kts | 284° |
| 2026-05-06 13:56 | -7.79992 | 114.26278 | 25899 ft | 465 kts | 284° |
| 2026-05-06 13:56 | -7.79156 | 114.23121 | 25902 ft | 465 kts | 284° |
| 2026-05-06 13:56 | -7.78322 | 114.19971 | 25904 ft | 465 kts | 284° |
| 2026-05-06 13:56 | -7.77488 | 114.16821 | 25904 ft | 465 kts | 284° |
| 2026-05-06 13:57 | -7.76656 | 114.13668 | 25902 ft | 465 kts | 284° |
| 2026-05-06 13:57 | -7.75829 | 114.10518 | 25887 ft | 465 kts | 283° |
| 2026-05-06 13:57 | -7.75257 | 114.07319 | 25885 ft | 464 kts | 275° |
| 2026-05-06 13:57 | -7.75086 | 114.04071 | 25886 ft | 464 kts | 271° |
| 2026-05-06 13:58 | -7.74948 | 114.00817 | 25886 ft | 464 kts | 271° |
| 2026-05-06 13:58 | -7.74806 | 113.97574 | 25889 ft | 464 kts | 272° |
| 2026-05-06 13:58 | -7.74660 | 113.94322 | 25889 ft | 464 kts | 272° |
| 2026-05-06 13:58 | -7.74513 | 113.91074 | 25888 ft | 464 kts | 272° |
| 2026-05-06 13:59 | -7.74369 | 113.87826 | 25889 ft | 464 kts | 272° |
| 2026-05-06 13:59 | -7.74223 | 113.84577 | 25891 ft | 464 kts | 272° |
| 2026-05-06 13:59 | -7.74076 | 113.81324 | 25893 ft | 464 kts | 272° |
| 2026-05-06 13:59 | -7.73929 | 113.78072 | 25891 ft | 464 kts | 272° |
| 2026-05-06 14:00 | -7.73783 | 113.74826 | 25891 ft | 464 kts | 272° |
| 2026-05-06 14:00 | -7.73639 | 113.71579 | 25893 ft | 464 kts | 272° |
| 2026-05-06 14:00 | -7.73497 | 113.68322 | 25893 ft | 464 kts | 272° |
| 2026-05-06 14:00 | -7.73356 | 113.65074 | 25894 ft | 464 kts | 272° |
| 2026-05-06 14:01 | -7.73213 | 113.61826 | 25892 ft | 464 kts | 272° |
| 2026-05-06 14:01 | -7.73068 | 113.58577 | 25890 ft | 464 kts | 272° |
| 2026-05-06 14:01 | -7.72897 | 113.55322 | 25852 ft | 465 kts | 275° |
| 2026-05-06 14:01 | -7.72376 | 113.52109 | 25178 ft | 465 kts | 283° |
| 2026-05-06 14:02 | -7.71575 | 113.48943 | 24253 ft | 466 kts | 284° |
| 2026-05-06 14:02 | -7.70758 | 113.45789 | 23388 ft | 466 kts | 284° |
| 2026-05-06 14:02 | -7.69931 | 113.42630 | 22446 ft | 464 kts | 284° |
| 2026-05-06 14:02 | -7.69111 | 113.39498 | 21739 ft | 459 kts | 284° |
| 2026-05-06 14:03 | -7.68312 | 113.36423 | 21454 ft | 455 kts | 283° |
| 2026-05-06 14:03 | -7.67519 | 113.33347 | 21195 ft | 453 kts | 283° |
| 2026-05-06 14:03 | -7.66736 | 113.30275 | 20914 ft | 452 kts | 283° |
| 2026-05-06 14:03 | -7.65962 | 113.27228 | 20657 ft | 452 kts | 283° |
| 2026-05-06 14:04 | -7.65193 | 113.24160 | 20392 ft | 450 kts | 283° |
| 2026-05-06 14:04 | -7.64507 | 113.21082 | 20135 ft | 448 kts | 281° |
| 2026-05-06 14:04 | -7.63904 | 113.18010 | 19881 ft | 447 kts | 279° |
| 2026-05-06 14:04 | -7.63343 | 113.14935 | 19629 ft | 445 kts | 279° |
| 2026-05-06 14:05 | -7.62795 | 113.11870 | 19382 ft | 443 kts | 279° |
| 2026-05-06 14:05 | -7.62240 | 113.08825 | 19136 ft | 441 kts | 279° |
| 2026-05-06 14:05 | -7.61670 | 113.05809 | 18887 ft | 433 kts | 280° |
| 2026-05-06 14:05 | -7.61097 | 113.02872 | 18649 ft | 422 kts | 280° |
| 2026-05-06 14:06 | -7.60523 | 112.99984 | 18401 ft | 419 kts | 280° |
| 2026-05-06 14:06 | -7.59953 | 112.97112 | 18160 ft | 416 kts | 280° |
| 2026-05-06 14:06 | -7.59390 | 112.94261 | 17662 ft | 415 kts | 279° |
| 2026-05-06 14:06 | -7.58833 | 112.91418 | 16967 ft | 409 kts | 279° |
| 2026-05-06 14:07 | -7.58293 | 112.88660 | 16238 ft | 395 kts | 280° |
| 2026-05-06 14:07 | -7.57769 | 112.85990 | 15524 ft | 383 kts | 279° |
| 2026-05-06 14:07 | -7.57260 | 112.83400 | 14834 ft | 372 kts | 279° |
| 2026-05-06 14:07 | -7.56764 | 112.80867 | 14146 ft | 363 kts | 280° |
| 2026-05-06 14:08 | -7.56283 | 112.78398 | 13457 ft | 356 kts | 279° |
| 2026-05-06 14:08 | -7.55809 | 112.75957 | 12697 ft | 352 kts | 280° |
| 2026-05-06 14:08 | -7.55340 | 112.73545 | 11961 ft | 350 kts | 280° |
| 2026-05-06 14:08 | -7.54876 | 112.71151 | 11385 ft | 349 kts | 280° |
| 2026-05-06 14:09 | -7.54408 | 112.68747 | 10889 ft | 349 kts | 281° |
| 2026-05-06 14:09 | -7.53941 | 112.66349 | 10379 ft | 349 kts | 281° |
| 2026-05-06 14:09 | -7.53474 | 112.63957 | 9872 ft | 343 kts | 281° |
| 2026-05-06 14:09 | -7.53020 | 112.61643 | 9328 ft | 331 kts | 281° |
| 2026-05-06 14:10 | -7.52579 | 112.59403 | 8777 ft | 321 kts | 281° |
| 2026-05-06 14:10 | -7.52150 | 112.57234 | 8248 ft | 311 kts | 281° |
| 2026-05-06 14:10 | -7.51733 | 112.55126 | 7721 ft | 303 kts | 281° |
| 2026-05-06 14:10 | -7.51316 | 112.53073 | 7197 ft | 295 kts | 281° |
| 2026-05-06 14:11 | -7.50908 | 112.51076 | 6775 ft | 285 kts | 281° |
| 2026-05-06 14:11 | -7.50503 | 112.49166 | 6431 ft | 272 kts | 286° |
| 2026-05-06 14:11 | -7.49702 | 112.47510 | 6268 ft | 259 kts | 308° |
| 2026-05-06 14:11 | -7.48406 | 112.46309 | 6117 ft | 253 kts | 330° |
| 2026-05-06 14:12 | -7.46774 | 112.45690 | 5872 ft | 248 kts | 353° |
| 2026-05-06 14:12 | -7.45073 | 112.45732 | 5647 ft | 244 kts | 15° |
| 2026-05-06 14:12 | -7.43526 | 112.46373 | 5387 ft | 240 kts | 36° |
| 2026-05-06 14:12 | -7.42203 | 112.47392 | 5146 ft | 239 kts | 40° |
| 2026-05-06 14:13 | -7.40896 | 112.48423 | 4915 ft | 238 kts | 39° |
| 2026-05-06 14:13 | -7.39591 | 112.49447 | 4675 ft | 237 kts | 39° |
| 2026-05-06 14:13 | -7.38292 | 112.50467 | 4482 ft | 235 kts | 39° |
| 2026-05-06 14:13 | -7.37020 | 112.51465 | 4361 ft | 228 kts | 40° |
| 2026-05-06 14:14 | -7.35785 | 112.52442 | 4290 ft | 224 kts | 44° |
| 2026-05-06 14:14 | -7.34818 | 112.53631 | 4245 ft | 218 kts | 65° |
| 2026-05-06 14:14 | -7.34333 | 112.55061 | 4115 ft | 215 kts | 84° |
| 2026-05-06 14:14 | -7.34381 | 112.56549 | 3885 ft | 213 kts | 100° |
| 2026-05-06 14:15 | -7.34623 | 112.58019 | 3625 ft | 212 kts | 100° |
| 2026-05-06 14:15 | -7.34863 | 112.59483 | 3358 ft | 211 kts | 100° |
| 2026-05-06 14:15 | -7.35098 | 112.60923 | 3090 ft | 204 kts | 99° |
| 2026-05-06 14:15 | -7.35324 | 112.62309 | 2836 ft | 197 kts | 99° |
| 2026-05-06 14:16 | -7.35541 | 112.63649 | 2614 ft | 191 kts | 99° |
| 2026-05-06 14:16 | -7.35753 | 112.64948 | 2357 ft | 183 kts | 99° |
| 2026-05-06 14:16 | -7.35949 | 112.66155 | 2119 ft | 170 kts | 99° |
| 2026-05-06 14:16 | -7.36133 | 112.67291 | 1919 ft | 160 kts | 99° |
| 2026-05-06 14:17 | -7.36306 | 112.68350 | 1729 ft | 146 kts | 99° |
| 2026-05-06 14:17 | -7.36463 | 112.69322 | 1542 ft | 137 kts | 99° |
| 2026-05-06 14:17 | -7.36616 | 112.70261 | 1367 ft | 135 kts | 100° |
| 2026-05-06 14:17 | -7.36767 | 112.71191 | 1194 ft | 134 kts | 99° |
| 2026-05-06 14:18 | -7.36916 | 112.72109 | 1024 ft | 135 kts | 99° |
| 2026-05-06 14:18 | -7.37068 | 112.73045 | 869 ft | 136 kts | 99° |
| 2026-05-06 14:18 | -7.37219 | 112.73976 | 708 ft | 135 kts | 99° |
| 2026-05-06 14:18 | -7.37371 | 112.74909 | 541 ft | 134 kts | 99° |
| 2026-05-06 14:19 | -7.37521 | 112.75834 | 363 ft | 133 kts | 99° |
| 2026-05-06 14:19 | -7.37671 | 112.76751 | 176 ft | 133 kts | 99° |
| 2026-05-06 14:19 | -7.37816 | 112.77665 | 23 ft | 131 kts | 99° |
| 2026-05-06 14:19 | -7.37946 | 112.78455 | 8 ft | 92 kts | 99° |
| 2026-05-06 14:20 | -7.38020 | 112.78925 | 10 ft | 46 kts | 99° |
| 2026-05-06 14:20 | -7.38052 | 112.79128 | 14 ft | 22 kts | 96° |
| 2026-05-06 14:20 | -7.38026 | 112.79282 | 10 ft | 23 kts | 70° |
| 2026-05-06 14:20 | -7.37980 | 112.79394 | 9 ft | 12 kts | 58° |
| 2026-05-06 14:21 | -7.37898 | 112.79416 | 9 ft | 12 kts | 8° |
| 2026-05-06 14:21 | -7.37819 | 112.79428 | 9 ft | 11 kts | 9° |
| 2026-05-06 14:21 | -7.37771 | 112.79436 | 9 ft | 10 kts | 9° |
| 2026-05-06 14:21 | -7.37706 | 112.79447 | 9 ft | 9 kts | 9° |
| 2026-05-06 14:22 | -7.37648 | 112.79458 | 9 ft | 8 kts | 13° |
| 2026-05-06 14:22 | -7.37602 | 112.79467 | 9 ft | 5 kts | 9° |
| 2026-05-06 14:22 | -7.37588 | 112.79470 | 9 ft | 1 kts | 9° |
| 2026-05-06 14:22 | -7.37587 | 112.79470 | 11 ft | 0 kts | 9° |